createdAt,value
2019-06-26T00:00:38.127Z,27.68
2019-06-26T00:05:42.176Z,27.74
2019-06-26T00:10:46.170Z,27.68
2019-06-26T00:15:50.102Z,27.64
2019-06-26T00:20:54.049Z,27.60
2019-06-26T00:25:58.067Z,27.56
2019-06-26T00:31:02.017Z,27.47
2019-06-26T00:36:05.947Z,27.52
2019-06-26T00:41:10.017Z,27.52
2019-06-26T00:46:13.995Z,27.47
2019-06-26T00:51:18.201Z,27.47
2019-06-26T00:56:22.208Z,27.43
2019-06-26T01:01:26.145Z,27.38
2019-06-26T01:06:45.176Z,27.35
2019-06-26T01:11:49.122Z,27.35
2019-06-26T01:16:53.050Z,27.35
2019-06-26T01:21:57.060Z,27.33
2019-06-26T01:27:01.005Z,27.32
2019-06-26T01:32:05.090Z,27.29
2019-06-26T01:37:09.016Z,27.29
2019-06-26T01:42:12.946Z,27.28
2019-06-26T01:47:16.947Z,27.28
2019-06-26T01:52:20.970Z,27.19
2019-06-26T01:57:24.902Z,27.19
2019-06-26T02:02:29.223Z,27.25
2019-06-26T02:07:33.169Z,27.25
2019-06-26T02:12:37.234Z,27.22
2019-06-26T02:17:41.177Z,27.22
2019-06-26T02:22:45.106Z,27.22
2019-06-26T02:27:49.032Z,27.21
2019-06-26T02:32:53.009Z,27.12
2019-06-26T02:37:56.897Z,27.19
2019-06-26T02:43:06.353Z,27.10
2019-06-26T02:48:06.735Z,27.17
2019-06-26T02:53:10.740Z,27.17
2019-06-26T02:58:14.690Z,26.95
2019-06-26T03:03:18.641Z,26.75
2019-06-26T03:08:22.646Z,26.75
2019-06-26T03:13:26.601Z,26.62
2019-06-26T03:18:30.529Z,26.57
2019-06-26T03:23:34.614Z,26.57
2019-06-26T03:28:38.553Z,26.22
2019-06-26T03:33:42.763Z,26.22
2019-06-26T03:38:46.791Z,26.22
2019-06-26T03:43:50.761Z,25.94
2019-06-26T03:48:54.701Z,25.81
2019-06-26T03:53:58.656Z,25.86
2019-06-26T03:59:02.615Z,26.06
2019-06-26T04:04:06.570Z,25.73
2019-06-26T04:09:11.201Z,25.73
2019-06-26T04:14:15.148Z,25.93
2019-06-26T04:19:19.116Z,25.80
2019-06-26T04:24:23.027Z,25.61
2019-06-26T04:29:26.957Z,25.82
2019-06-26T04:34:30.899Z,25.75
2019-06-26T04:39:34.851Z,25.81
2019-06-26T04:44:38.782Z,26.02
2019-06-26T04:49:42.727Z,26.02
2019-06-26T04:54:46.657Z,25.87
2019-06-26T04:59:50.656Z,25.94
2019-06-26T05:04:54.619Z,25.94
2019-06-26T05:09:58.683Z,26.01
2019-06-26T05:15:02.640Z,25.99
2019-06-26T05:20:08.318Z,25.99
2019-06-26T05:25:12.342Z,26.22
2019-06-26T05:30:16.940Z,26.22
2019-06-26T05:35:20.941Z,26.29
2019-06-26T05:40:25.054Z,26.37
2019-06-26T05:45:29.116Z,26.37
2019-06-26T05:50:33.055Z,26.46
2019-06-26T05:55:36.991Z,26.51
2019-06-26T06:00:40.955Z,26.53
2019-06-26T06:05:45.001Z,26.52
2019-06-26T06:10:49.015Z,26.55
2019-06-26T06:15:52.977Z,26.57
2019-06-26T06:20:56.955Z,26.57
2019-06-26T06:26:01.205Z,26.59
2019-06-26T06:31:05.216Z,26.66
2019-06-26T06:36:09.889Z,26.66
2019-06-26T06:41:14.060Z,26.63
2019-06-26T06:46:18.249Z,26.76
2019-06-26T06:51:22.252Z,26.79
2019-06-26T06:56:26.286Z,26.79
2019-06-26T07:01:30.261Z,26.88
2019-06-26T07:06:34.379Z,26.88
2019-06-26T07:11:38.548Z,26.89
2019-06-26T07:16:42.583Z,26.89
2019-06-26T07:21:46.544Z,26.90
2019-06-26T07:26:50.472Z,26.94
2019-06-26T07:31:54.443Z,26.92
2019-06-26T07:36:58.386Z,26.96
2019-06-26T07:42:02.481Z,26.97
2019-06-26T07:47:21.905Z,26.97
2019-06-26T07:52:12.166Z,26.99
2019-06-26T07:57:16.135Z,26.99
2019-06-26T08:02:20.105Z,27.01
2019-06-26T08:07:24.316Z,27.01
2019-06-26T08:12:28.292Z,27.03
2019-06-26T08:17:32.238Z,27.05
2019-06-26T08:22:36.201Z,26.97
2019-06-26T08:27:40.156Z,27.07
2019-06-26T08:32:44.102Z,27.08
2019-06-26T08:37:48.098Z,27.11
2019-06-26T08:42:52.106Z,27.14
2019-06-26T08:47:56.111Z,27.17
2019-06-26T08:53:00.058Z,27.17
2019-06-26T08:58:04.135Z,27.19
2019-06-26T09:03:08.154Z,27.21
2019-06-26T09:08:12.209Z,27.23
2019-06-26T09:13:16.421Z,27.25
2019-06-26T09:18:34.294Z,27.25
2019-06-26T09:23:26.041Z,27.28
2019-06-26T09:28:29.985Z,27.28
2019-06-26T09:33:33.939Z,27.27
2019-06-26T09:38:37.884Z,27.27
2019-06-26T09:43:41.949Z,27.28
2019-06-26T09:48:52.946Z,27.27
2019-06-26T09:53:51.543Z,27.28
2019-06-26T09:58:55.512Z,27.30
2019-06-26T10:03:59.538Z,27.30
2019-06-26T10:09:03.797Z,27.24
2019-06-26T10:14:07.762Z,27.31
2019-06-26T10:19:11.732Z,27.29
2019-06-26T10:24:15.689Z,27.29
2019-06-26T10:29:19.729Z,27.31
2019-06-26T10:34:23.675Z,27.32
2019-06-26T10:39:27.628Z,27.32
2019-06-26T10:44:31.766Z,27.34
2019-06-26T10:49:35.711Z,27.35
2019-06-26T10:54:39.675Z,27.37
2019-06-26T10:59:43.660Z,27.37
2019-06-26T11:04:47.707Z,27.39
2019-06-26T11:09:51.678Z,27.41
2019-06-26T11:14:55.824Z,27.41
2019-06-26T11:19:59.795Z,27.48
2019-06-26T11:25:03.913Z,27.48
2019-06-26T11:30:09.263Z,27.53
2019-06-26T11:35:13.576Z,27.55
2019-06-26T11:40:18.381Z,27.55
2019-06-26T11:45:23.313Z,27.58
2019-06-26T11:50:27.402Z,27.58
2019-06-26T11:55:31.421Z,27.61
2019-06-26T12:00:35.364Z,27.65
2019-06-26T12:05:39.339Z,27.67
2019-06-26T12:10:43.271Z,27.71
2019-06-26T12:15:47.306Z,27.72
2019-06-26T12:20:51.258Z,27.73
2019-06-26T12:25:55.251Z,27.74
2019-06-26T12:30:59.410Z,27.75
2019-06-26T12:36:03.322Z,27.76
2019-06-26T12:41:07.314Z,27.76
2019-06-26T12:46:11.336Z,27.80
2019-06-26T12:51:15.275Z,27.83
2019-06-26T12:56:19.268Z,27.83
2019-06-26T13:01:25.207Z,27.77
2019-06-26T13:06:29.110Z,27.87
2019-06-26T13:11:33.447Z,27.88
2019-06-26T13:16:38.112Z,27.91
2019-06-26T13:21:42.098Z,27.91
2019-06-26T13:26:46.109Z,27.94
2019-06-26T13:31:50.104Z,27.94
2019-06-26T13:36:54.033Z,27.96
2019-06-26T13:41:57.965Z,27.97
2019-06-26T13:47:01.939Z,27.89
2019-06-26T13:52:05.966Z,28.03
2019-06-26T13:57:09.924Z,28.03
2019-06-26T14:02:14.973Z,27.97
2019-06-26T14:07:19.375Z,28.05
2019-06-26T14:12:23.658Z,28.05
2019-06-26T14:17:27.676Z,28.10
2019-06-26T14:22:31.726Z,28.10
2019-06-26T14:27:35.734Z,28.08
2019-06-26T14:32:39.665Z,28.11
2019-06-26T14:37:43.614Z,28.13
2019-06-26T14:42:47.557Z,28.15
2019-06-26T14:47:51.487Z,28.07
2019-06-26T14:52:55.461Z,28.16
2019-06-26T14:57:59.421Z,28.16
2019-06-26T15:03:04.323Z,28.22
2019-06-26T15:08:08.330Z,28.21
2019-06-26T15:13:12.264Z,28.26
2019-06-26T15:18:16.212Z,28.15
2019-06-26T15:23:20.397Z,28.15
2019-06-26T15:28:24.498Z,28.04
2019-06-26T15:33:28.430Z,28.03
2019-06-26T15:38:32.505Z,28.07
2019-06-26T15:43:36.980Z,28.20
2019-06-26T15:48:40.927Z,28.16
2019-06-26T15:53:44.919Z,28.18
2019-06-26T15:58:48.951Z,28.18
2019-06-26T16:03:52.965Z,28.40
2019-06-26T16:08:56.891Z,28.44
2019-06-26T16:14:00.832Z,28.45
2019-06-26T16:19:10.471Z,28.44
2019-06-26T16:24:14.483Z,28.48
2019-06-26T16:29:18.440Z,28.50
2019-06-26T16:34:22.367Z,28.54
2019-06-26T16:39:26.339Z,28.54
2019-06-26T16:44:30.324Z,28.61
2019-06-26T16:49:34.267Z,28.57
2019-06-26T16:54:38.207Z,28.51
2019-06-26T16:59:42.261Z,28.51
2019-06-26T17:04:46.282Z,28.50
2019-06-26T17:09:50.561Z,28.54
2019-06-26T17:14:54.556Z,28.54
2019-06-26T17:19:58.569Z,28.56
2019-06-26T17:25:02.932Z,28.40
2019-06-26T17:30:07.964Z,28.43
2019-06-26T17:35:13.260Z,28.60
2019-06-26T17:40:17.297Z,28.60
2019-06-26T17:45:21.799Z,28.64
2019-06-26T17:50:25.751Z,28.63
2019-06-26T17:55:29.706Z,28.63
2019-06-26T18:00:35.861Z,28.63
2019-06-26T18:05:39.806Z,28.63
2019-06-26T18:10:43.774Z,28.67
2019-06-26T18:15:47.756Z,28.66
2019-06-26T18:20:51.733Z,28.66
2019-06-26T18:26:11.881Z,28.65
2019-06-26T18:31:01.628Z,28.66
2019-06-26T18:36:06.165Z,28.65
2019-06-26T18:41:10.094Z,28.65
2019-06-26T18:46:14.121Z,28.64
2019-06-26T18:51:19.543Z,28.63
2019-06-26T18:56:23.562Z,28.62
2019-06-26T19:01:27.598Z,28.63
2019-06-26T19:06:31.637Z,28.63
2019-06-26T19:11:35.784Z,28.62
2019-06-26T19:16:39.742Z,28.64
2019-06-26T19:21:43.691Z,28.64
2019-06-26T19:26:47.634Z,28.65
2019-06-26T19:31:51.572Z,28.64
2019-06-26T19:36:55.611Z,28.64
2019-06-26T19:41:59.662Z,28.63
2019-06-26T19:47:03.625Z,28.63
2019-06-26T19:52:07.576Z,28.63
2019-06-26T19:57:11.512Z,28.65
2019-06-26T20:02:15.610Z,28.68
2019-06-26T20:07:19.640Z,28.67
2019-06-26T20:12:23.815Z,28.59
2019-06-26T20:17:27.858Z,28.66
2019-06-26T20:22:31.805Z,28.65
2019-06-26T20:27:35.849Z,28.65
2019-06-26T20:32:39.815Z,28.66
2019-06-26T20:37:43.797Z,28.66
2019-06-26T20:42:47.728Z,28.63
2019-06-26T20:47:51.690Z,28.63
2019-06-26T20:52:55.852Z,28.62
2019-06-26T20:57:59.815Z,28.62
2019-06-26T21:03:03.891Z,28.63
2019-06-26T21:08:08.126Z,28.62
2019-06-26T21:13:12.124Z,28.62
2019-06-26T21:18:16.106Z,28.62
2019-06-26T21:23:23.319Z,28.62
2019-06-26T21:28:25.793Z,28.63
2019-06-26T21:33:29.776Z,28.63
2019-06-26T21:38:33.999Z,28.62
2019-06-26T21:43:38.055Z,28.63
2019-06-26T21:48:42.001Z,28.63
2019-06-26T21:53:46.041Z,28.63
2019-06-26T21:58:50.104Z,28.63
2019-06-26T22:03:54.143Z,28.63
2019-06-26T22:08:58.119Z,28.62
2019-06-26T22:14:02.105Z,28.62
2019-06-26T22:19:06.128Z,28.64
2019-06-26T22:24:10.085Z,28.63
2019-06-26T22:29:14.164Z,28.64
2019-06-26T22:34:18.137Z,28.55
2019-06-26T22:39:22.091Z,28.65
2019-06-26T22:44:26.170Z,28.65
2019-06-26T22:49:30.145Z,28.64
2019-06-26T22:54:34.114Z,28.64
2019-06-26T22:59:38.180Z,28.65
2019-06-26T23:04:42.143Z,28.66
2019-06-26T23:09:46.118Z,28.65
2019-06-26T23:14:50.196Z,28.63
2019-06-26T23:19:54.310Z,28.62
2019-06-26T23:24:58.282Z,28.58
2019-06-26T23:30:02.363Z,28.64
2019-06-26T23:35:06.892Z,28.64
2019-06-26T23:40:11.885Z,28.64
2019-06-26T23:45:16.026Z,28.61
2019-06-26T23:50:19.993Z,28.54
2019-06-26T23:55:23.956Z,28.54
